Details for BMI Regional at EGNX




Go Back


Latest METAR
Local Time

EGNX 241350Z 09014KT CAVOK 05/M04 Q1024

24/02/2018, 14:01:13

Description
Results
BMI Regional Logo
Number of Pilots based at EGNX
1 Pilots Based here
Number of BMI Regional Flights Departed from EGNX
0 Flights Departed
Number of BMI Regional Flights Arrived at EGNX
0 Flights Arrived
Number of BMI Regional Schedules Departing from EGNX
2 Schedules
Number of BMI Regional Schedules Arriving at EGNX
2 Schedules
Number of BMI Regional Schedules Departing from EGNX availible today
0 Schedules Today
Number of BMI Regional Schedules Arriving at EGNX availible today
0 Schedules Today
Average Landing Rate at EGNX
-224 fpm
BMI Regional Average Landing Rate at EGNX
0 fpm
Total Fuel Purchased at EGNX by BMI Regional
0.00 kgs / 0.00 lbs

Pilots Based at EGNX


Pilot ID
Pilot Name
Pilot Rank
No. of Flights
No. of Flying Hours
Guy Hall
255
349.15
Content